Terminal Aerodrome Forecast
Issued by NWS

Home | Current Version | Previous Version | Text Only | Print | Product List | Glossary On
Versions: 1 2 3 4 5 6 7 8 9 10 11 12 13 14 15 16
845
FTUS42 TJSJ 261120
TAFJBQ
TAF
TJBQ 261120Z 2612/2712 12005KT P6SM VCSH FEW035 FEW050
     FM261300 08012KT P6SM SCT025 BKN050
     FM261600 08012G22KT P6SM VCTS SCT025CB BKN030 OVC060
     FM262300 10006KT P6SM FEW025 SCT030 SCT090=

USA.gov is the U.S. government's official web portal to all federal, state and local government web resources and services.